sensor_id;sensor_type;location;lat;lon;timestamp;P1;durP1;ratioP1;P2;durP2;ratioP2
46561;SDS011;32289;42.688;23.330;2023-04-25T00:03:00;2.72;;;1.40;;
46561;SDS011;32289;42.688;23.330;2023-04-25T00:06:41;3.92;;;1.73;;
46561;SDS011;32289;42.688;23.330;2023-04-25T00:10:22;7.32;;;1.63;;
46561;SDS011;32289;42.688;23.330;2023-04-25T00:14:03;2.88;;;1.20;;
46561;SDS011;32289;42.688;23.330;2023-04-25T00:17:44;1.90;;;1.30;;
46561;SDS011;32289;42.688;23.330;2023-04-25T00:21:25;2.50;;;1.33;;
46561;SDS011;32289;42.688;23.330;2023-04-25T00:25:06;4.03;;;1.35;;
46561;SDS011;32289;42.688;23.330;2023-04-25T00:28:47;2.70;;;1.83;;
46561;SDS011;32289;42.688;23.330;2023-04-25T00:32:28;3.08;;;1.90;;
46561;SDS011;32289;42.688;23.330;2023-04-25T00:36:09;3.25;;;1.83;;
46561;SDS011;32289;42.688;23.330;2023-04-25T00:39:50;4.07;;;2.30;;
46561;SDS011;32289;42.688;23.330;2023-04-25T00:43:31;3.75;;;1.73;;
46561;SDS011;32289;42.688;23.330;2023-04-25T00:47:13;4.20;;;2.13;;
46561;SDS011;32289;42.688;23.330;2023-04-25T00:50:56;3.70;;;1.85;;
46561;SDS011;32289;42.688;23.330;2023-04-25T00:54:38;3.40;;;1.48;;
46561;SDS011;32289;42.688;23.330;2023-04-25T00:58:19;4.43;;;1.95;;
46561;SDS011;32289;42.688;23.330;2023-04-25T01:02:01;3.78;;;1.95;;
46561;SDS011;32289;42.688;23.330;2023-04-25T01:05:41;4.82;;;2.35;;
46561;SDS011;32289;42.688;23.330;2023-04-25T01:09:23;5.28;;;2.55;;
46561;SDS011;32289;42.688;23.330;2023-04-25T01:13:04;5.03;;;2.33;;
46561;SDS011;32289;42.688;23.330;2023-04-25T01:16:45;6.50;;;2.20;;
46561;SDS011;32289;42.688;23.330;2023-04-25T01:20:26;4.47;;;2.20;;
46561;SDS011;32289;42.688;23.330;2023-04-25T01:24:08;3.95;;;1.98;;
46561;SDS011;32289;42.688;23.330;2023-04-25T01:27:49;5.40;;;2.53;;
46561;SDS011;32289;42.688;23.330;2023-04-25T01:31:30;3.33;;;1.73;;
46561;SDS011;32289;42.688;23.330;2023-04-25T01:35:12;3.15;;;1.52;;
46561;SDS011;32289;42.688;23.330;2023-04-25T01:38:53;4.03;;;1.92;;
46561;SDS011;32289;42.688;23.330;2023-04-25T01:42:35;3.47;;;2.10;;
46561;SDS011;32289;42.688;23.330;2023-04-25T01:46:18;7.10;;;1.73;;
46561;SDS011;32289;42.688;23.330;2023-04-25T01:49:58;4.45;;;2.00;;
46561;SDS011;32289;42.688;23.330;2023-04-25T01:53:39;2.67;;;1.38;;
46561;SDS011;32289;42.688;23.330;2023-04-25T01:57:20;3.22;;;2.05;;
46561;SDS011;32289;42.688;23.330;2023-04-25T02:01:00;2.63;;;1.67;;
46561;SDS011;32289;42.688;23.330;2023-04-25T02:04:41;4.78;;;2.25;;
46561;SDS011;32289;42.688;23.330;2023-04-25T02:08:22;4.22;;;1.90;;
46561;SDS011;32289;42.688;23.330;2023-04-25T02:12:03;3.45;;;2.10;;
46561;SDS011;32289;42.688;23.330;2023-04-25T02:15:44;3.72;;;2.00;;
46561;SDS011;32289;42.688;23.330;2023-04-25T02:19:24;3.38;;;1.60;;
46561;SDS011;32289;42.688;23.330;2023-04-25T02:23:05;8.77;;;1.95;;
46561;SDS011;32289;42.688;23.330;2023-04-25T02:26:46;3.08;;;1.52;;
46561;SDS011;32289;42.688;23.330;2023-04-25T02:30:26;4.13;;;2.05;;
46561;SDS011;32289;42.688;23.330;2023-04-25T02:34:07;3.22;;;1.80;;
46561;SDS011;32289;42.688;23.330;2023-04-25T02:37:48;3.95;;;1.80;;
46561;SDS011;32289;42.688;23.330;2023-04-25T02:41:29;3.33;;;2.13;;
46561;SDS011;32289;42.688;23.330;2023-04-25T02:45:09;5.35;;;1.92;;
46561;SDS011;32289;42.688;23.330;2023-04-25T02:48:50;2.97;;;1.50;;
46561;SDS011;32289;42.688;23.330;2023-04-25T02:52:31;4.28;;;1.73;;
46561;SDS011;32289;42.688;23.330;2023-04-25T02:56:12;4.85;;;2.35;;
46561;SDS011;32289;42.688;23.330;2023-04-25T02:59:52;4.40;;;2.28;;
46561;SDS011;32289;42.688;23.330;2023-04-25T03:03:33;4.30;;;2.10;;
46561;SDS011;32289;42.688;23.330;2023-04-25T03:07:14;3.45;;;2.13;;
46561;SDS011;32289;42.688;23.330;2023-04-25T03:10:54;4.28;;;2.28;;
46561;SDS011;32289;42.688;23.330;2023-04-25T03:14:35;5.00;;;2.38;;
46561;SDS011;32289;42.688;23.330;2023-04-25T03:18:16;6.25;;;2.28;;
46561;SDS011;32289;42.688;23.330;2023-04-25T03:21:56;8.60;;;2.75;;
46561;SDS011;32289;42.688;23.330;2023-04-25T03:25:37;9.40;;;3.05;;
46561;SDS011;32289;42.688;23.330;2023-04-25T03:29:18;4.20;;;2.58;;
46561;SDS011;32289;42.688;23.330;2023-04-25T03:32:58;3.58;;;2.15;;
46561;SDS011;32289;42.688;23.330;2023-04-25T03:36:39;6.93;;;2.97;;
46561;SDS011;32289;42.688;23.330;2023-04-25T03:40:20;4.93;;;2.25;;
46561;SDS011;32289;42.688;23.330;2023-04-25T03:44:00;6.60;;;3.13;;
46561;SDS011;32289;42.688;23.330;2023-04-25T03:47:41;4.22;;;2.45;;
46561;SDS011;32289;42.688;23.330;2023-04-25T03:51:22;4.88;;;2.90;;
46561;SDS011;32289;42.688;23.330;2023-04-25T03:55:02;5.63;;;2.90;;
46561;SDS011;32289;42.688;23.330;2023-04-25T03:58:44;5.72;;;2.47;;
46561;SDS011;32289;42.688;23.330;2023-04-25T04:02:25;5.40;;;2.83;;
46561;SDS011;32289;42.688;23.330;2023-04-25T04:06:06;5.30;;;2.60;;
46561;SDS011;32289;42.688;23.330;2023-04-25T04:09:47;5.28;;;3.05;;
46561;SDS011;32289;42.688;23.330;2023-04-25T04:13:28;7.70;;;2.83;;
46561;SDS011;32289;42.688;23.330;2023-04-25T04:17:09;5.43;;;2.83;;
46561;SDS011;32289;42.688;23.330;2023-04-25T04:20:50;6.85;;;3.33;;
46561;SDS011;32289;42.688;23.330;2023-04-25T04:24:31;6.40;;;3.35;;
46561;SDS011;32289;42.688;23.330;2023-04-25T04:28:12;4.43;;;2.88;;
46561;SDS011;32289;42.688;23.330;2023-04-25T04:31:53;5.72;;;2.92;;
46561;SDS011;32289;42.688;23.330;2023-04-25T04:35:34;6.90;;;3.78;;
46561;SDS011;32289;42.688;23.330;2023-04-25T04:39:17;8.02;;;3.92;;
46561;SDS011;32289;42.688;23.330;2023-04-25T04:42:58;6.72;;;3.08;;
46561;SDS011;32289;42.688;23.330;2023-04-25T04:46:39;5.20;;;2.95;;
46561;SDS011;32289;42.688;23.330;2023-04-25T04:50:21;6.65;;;3.13;;
46561;SDS011;32289;42.688;23.330;2023-04-25T04:54:03;9.30;;;4.13;;
46561;SDS011;32289;42.688;23.330;2023-04-25T04:57:43;5.78;;;3.53;;
46561;SDS011;32289;42.688;23.330;2023-04-25T05:01:24;7.05;;;3.63;;
46561;SDS011;32289;42.688;23.330;2023-04-25T05:05:06;6.20;;;3.50;;
46561;SDS011;32289;42.688;23.330;2023-04-25T05:08:47;7.30;;;3.55;;
46561;SDS011;32289;42.688;23.330;2023-04-25T05:12:30;5.28;;;3.25;;
46561;SDS011;32289;42.688;23.330;2023-04-25T05:16:12;5.85;;;3.25;;
46561;SDS011;32289;42.688;23.330;2023-04-25T05:19:53;7.03;;;3.85;;
46561;SDS011;32289;42.688;23.330;2023-04-25T05:23:33;9.30;;;4.65;;
46561;SDS011;32289;42.688;23.330;2023-04-25T05:27:16;9.43;;;4.22;;
46561;SDS011;32289;42.688;23.330;2023-04-25T05:30:57;9.68;;;4.68;;
46561;SDS011;32289;42.688;23.330;2023-04-25T05:34:38;11.35;;;4.78;;
46561;SDS011;32289;42.688;23.330;2023-04-25T05:38:19;12.98;;;4.90;;
46561;SDS011;32289;42.688;23.330;2023-04-25T05:42:00;7.93;;;4.78;;
46561;SDS011;32289;42.688;23.330;2023-04-25T05:45:42;9.38;;;5.10;;
46561;SDS011;32289;42.688;23.330;2023-04-25T05:49:23;7.30;;;4.47;;
46561;SDS011;32289;42.688;23.330;2023-04-25T05:53:03;9.27;;;4.15;;
46561;SDS011;32289;42.688;23.330;2023-04-25T05:56:45;8.57;;;4.03;;
46561;SDS011;32289;42.688;23.330;2023-04-25T06:00:26;10.05;;;4.10;;
46561;SDS011;32289;42.688;23.330;2023-04-25T06:04:07;7.80;;;3.90;;
46561;SDS011;32289;42.688;23.330;2023-04-25T06:07:47;5.20;;;3.55;;
46561;SDS011;32289;42.688;23.330;2023-04-25T06:11:28;7.53;;;4.28;;
46561;SDS011;32289;42.688;23.330;2023-04-25T06:15:09;8.57;;;4.25;;
46561;SDS011;32289;42.688;23.330;2023-04-25T06:18:50;5.13;;;3.10;;
46561;SDS011;32289;42.688;23.330;2023-04-25T06:22:31;7.22;;;3.25;;
46561;SDS011;32289;42.688;23.330;2023-04-25T06:26:12;4.85;;;2.25;;
46561;SDS011;32289;42.688;23.330;2023-04-25T06:29:52;5.63;;;2.95;;
46561;SDS011;32289;42.688;23.330;2023-04-25T06:33:33;5.30;;;3.00;;
46561;SDS011;32289;42.688;23.330;2023-04-25T06:37:14;4.95;;;2.65;;
46561;SDS011;32289;42.688;23.330;2023-04-25T06:40:54;5.60;;;2.83;;
46561;SDS011;32289;42.688;23.330;2023-04-25T06:44:35;8.63;;;3.28;;
46561;SDS011;32289;42.688;23.330;2023-04-25T06:48:16;6.28;;;2.90;;
46561;SDS011;32289;42.688;23.330;2023-04-25T06:51:56;6.55;;;2.35;;
46561;SDS011;32289;42.688;23.330;2023-04-25T06:55:37;6.88;;;3.33;;
46561;SDS011;32289;42.688;23.330;2023-04-25T06:59:18;5.43;;;2.83;;
46561;SDS011;32289;42.688;23.330;2023-04-25T07:02:59;5.57;;;3.13;;
46561;SDS011;32289;42.688;23.330;2023-04-25T07:06:40;7.13;;;3.28;;
46561;SDS011;32289;42.688;23.330;2023-04-25T07:10:22;6.00;;;3.35;;
46561;SDS011;32289;42.688;23.330;2023-04-25T07:14:03;9.40;;;3.97;;
46561;SDS011;32289;42.688;23.330;2023-04-25T07:17:44;7.75;;;3.33;;
46561;SDS011;32289;42.688;23.330;2023-04-25T07:21:24;4.32;;;2.65;;
46561;SDS011;32289;42.688;23.330;2023-04-25T07:25:06;4.75;;;3.08;;
46561;SDS011;32289;42.688;23.330;2023-04-25T07:28:48;9.68;;;3.47;;
46561;SDS011;32289;42.688;23.330;2023-04-25T07:32:31;6.63;;;3.08;;
46561;SDS011;32289;42.688;23.330;2023-04-25T07:36:12;14.65;;;4.45;;
46561;SDS011;32289;42.688;23.330;2023-04-25T07:39:52;7.88;;;3.63;;
46561;SDS011;32289;42.688;23.330;2023-04-25T07:43:33;5.43;;;2.58;;
46561;SDS011;32289;42.688;23.330;2023-04-25T07:47:14;5.90;;;3.00;;
46561;SDS011;32289;42.688;23.330;2023-04-25T07:50:55;7.50;;;3.53;;
46561;SDS011;32289;42.688;23.330;2023-04-25T07:54:36;9.23;;;2.65;;
46561;SDS011;32289;42.688;23.330;2023-04-25T07:58:16;5.20;;;3.15;;
46561;SDS011;32289;42.688;23.330;2023-04-25T08:02:01;8.38;;;2.78;;
46561;SDS011;32289;42.688;23.330;2023-04-25T08:05:42;9.60;;;3.80;;
46561;SDS011;32289;42.688;23.330;2023-04-25T08:09:23;5.30;;;2.42;;
46561;SDS011;32289;42.688;23.330;2023-04-25T08:13:04;3.78;;;2.55;;
46561;SDS011;32289;42.688;23.330;2023-04-25T08:16:45;4.32;;;2.60;;
46561;SDS011;32289;42.688;23.330;2023-04-25T08:20:26;4.53;;;2.53;;
46561;SDS011;32289;42.688;23.330;2023-04-25T08:24:07;4.75;;;2.42;;
46561;SDS011;32289;42.688;23.330;2023-04-25T08:27:48;2.47;;;1.63;;
46561;SDS011;32289;42.688;23.330;2023-04-25T08:31:28;3.70;;;2.03;;
46561;SDS011;32289;42.688;23.330;2023-04-25T08:35:09;3.80;;;1.80;;
46561;SDS011;32289;42.688;23.330;2023-04-25T08:38:51;3.15;;;1.42;;
46561;SDS011;32289;42.688;23.330;2023-04-25T08:42:31;4.82;;;2.80;;
46561;SDS011;32289;42.688;23.330;2023-04-25T08:46:17;8.00;;;3.80;;
46561;SDS011;32289;42.688;23.330;2023-04-25T08:49:59;6.65;;;2.95;;
46561;SDS011;32289;42.688;23.330;2023-04-25T08:53:41;5.90;;;3.15;;
46561;SDS011;32289;42.688;23.330;2023-04-25T08:57:24;3.95;;;2.58;;
46561;SDS011;32289;42.688;23.330;2023-04-25T09:01:05;3.45;;;2.20;;
46561;SDS011;32289;42.688;23.330;2023-04-25T09:04:46;7.53;;;2.85;;
46561;SDS011;32289;42.688;23.330;2023-04-25T09:08:27;4.18;;;2.22;;
46561;SDS011;32289;42.688;23.330;2023-04-25T09:12:09;4.55;;;2.50;;
46561;SDS011;32289;42.688;23.330;2023-04-25T09:15:51;5.05;;;2.95;;
46561;SDS011;32289;42.688;23.330;2023-04-25T09:19:34;4.53;;;2.92;;
46561;SDS011;32289;42.688;23.330;2023-04-25T09:23:15;4.22;;;2.45;;
46561;SDS011;32289;42.688;23.330;2023-04-25T09:26:59;4.15;;;2.28;;
46561;SDS011;32289;42.688;23.330;2023-04-25T09:30:43;2.03;;;1.48;;
46561;SDS011;32289;42.688;23.330;2023-04-25T09:34:26;2.95;;;1.55;;
46561;SDS011;32289;42.688;23.330;2023-04-25T09:38:14;5.03;;;1.90;;
46561;SDS011;32289;42.688;23.330;2023-04-25T09:41:58;2.63;;;1.90;;
46561;SDS011;32289;42.688;23.330;2023-04-25T09:45:42;5.53;;;2.53;;
46561;SDS011;32289;42.688;23.330;2023-04-25T09:49:27;3.67;;;1.90;;
46561;SDS011;32289;42.688;23.330;2023-04-25T09:53:08;5.43;;;2.55;;
46561;SDS011;32289;42.688;23.330;2023-04-25T09:56:51;10.20;;;1.80;;
46561;SDS011;32289;42.688;23.330;2023-04-25T10:00:33;7.72;;;2.60;;
46561;SDS011;32289;42.688;23.330;2023-04-25T10:04:16;4.57;;;2.10;;
46561;SDS011;32289;42.688;23.330;2023-04-25T10:08:03;2.70;;;1.83;;
46561;SDS011;32289;42.688;23.330;2023-04-25T10:11:45;2.97;;;1.80;;
46561;SDS011;32289;42.688;23.330;2023-04-25T10:15:28;4.13;;;2.03;;
46561;SDS011;32289;42.688;23.330;2023-04-25T10:19:09;2.35;;;1.63;;
46561;SDS011;32289;42.688;23.330;2023-04-25T10:22:51;5.85;;;1.30;;
46561;SDS011;32289;42.688;23.330;2023-04-25T10:26:36;4.40;;;2.22;;
46561;SDS011;32289;42.688;23.330;2023-04-25T10:30:17;4.55;;;1.08;;
46561;SDS011;32289;42.688;23.330;2023-04-25T10:34:01;5.38;;;1.10;;
46561;SDS011;32289;42.688;23.330;2023-04-25T10:41:46;2.38;;;1.05;;
46561;SDS011;32289;42.688;23.330;2023-04-25T10:45:30;2.33;;;1.38;;
46561;SDS011;32289;42.688;23.330;2023-04-25T10:53:16;2.65;;;1.08;;
46561;SDS011;32289;42.688;23.330;2023-04-25T10:56:58;2.58;;;0.95;;
46561;SDS011;32289;42.688;23.330;2023-04-25T11:00:38;3.05;;;1.02;;
46561;SDS011;32289;42.688;23.330;2023-04-25T11:08:03;1.50;;;0.70;;
46561;SDS011;32289;42.688;23.330;2023-04-25T11:11:55;3.80;;;1.70;;
46561;SDS011;32289;42.688;23.330;2023-04-25T11:15:36;1.50;;;0.80;;
46561;SDS011;32289;42.688;23.330;2023-04-25T11:19:18;2.10;;;1.10;;
46561;SDS011;32289;42.688;23.330;2023-04-25T11:23:00;2.35;;;0.80;;
46561;SDS011;32289;42.688;23.330;2023-04-25T11:26:41;1.48;;;0.80;;
46561;SDS011;32289;42.688;23.330;2023-04-25T11:30:23;1.17;;;0.70;;
46561;SDS011;32289;42.688;23.330;2023-04-25T11:34:05;2.63;;;1.23;;
46561;SDS011;32289;42.688;23.330;2023-04-25T11:37:46;5.45;;;1.10;;
46561;SDS011;32289;42.688;23.330;2023-04-25T11:41:27;1.60;;;0.60;;
46561;SDS011;32289;42.688;23.330;2023-04-25T11:45:08;7.30;;;1.83;;
46561;SDS011;32289;42.688;23.330;2023-04-25T11:48:50;4.43;;;0.93;;
46561;SDS011;32289;42.688;23.330;2023-04-25T11:52:41;3.22;;;0.93;;
46561;SDS011;32289;42.688;23.330;2023-04-25T11:56:23;1.75;;;1.00;;
46561;SDS011;32289;42.688;23.330;2023-04-25T12:00:11;8.27;;;3.80;;
46561;SDS011;32289;42.688;23.330;2023-04-25T12:03:53;5.90;;;1.65;;
46561;SDS011;32289;42.688;23.330;2023-04-25T12:07:34;19.35;;;7.68;;
46561;SDS011;32289;42.688;23.330;2023-04-25T12:11:21;15.63;;;6.10;;
46561;SDS011;32289;42.688;23.330;2023-04-25T12:15:08;1.95;;;0.70;;
46561;SDS011;32289;42.688;23.330;2023-04-25T12:18:55;0.80;;;0.50;;
46561;SDS011;32289;42.688;23.330;2023-04-25T12:22:37;0.82;;;0.60;;
46561;SDS011;32289;42.688;23.330;2023-04-25T12:26:18;1.67;;;0.77;;
46561;SDS011;32289;42.688;23.330;2023-04-25T12:30:00;2.13;;;0.70;;
46561;SDS011;32289;42.688;23.330;2023-04-25T12:33:41;1.92;;;0.70;;
46561;SDS011;32289;42.688;23.330;2023-04-25T12:37:24;4.90;;;1.00;;
46561;SDS011;32289;42.688;23.330;2023-04-25T12:41:04;2.38;;;1.05;;
46561;SDS011;32289;42.688;23.330;2023-04-25T12:44:45;3.38;;;1.00;;
46561;SDS011;32289;42.688;23.330;2023-04-25T12:48:26;2.25;;;0.93;;
46561;SDS011;32289;42.688;23.330;2023-04-25T12:52:07;3.25;;;1.17;;
46561;SDS011;32289;42.688;23.330;2023-04-25T12:55:48;2.15;;;1.02;;
46561;SDS011;32289;42.688;23.330;2023-04-25T12:59:28;2.78;;;1.33;;
46561;SDS011;32289;42.688;23.330;2023-04-25T13:03:12;2.70;;;1.42;;
46561;SDS011;32289;42.688;23.330;2023-04-25T13:06:53;4.45;;;1.95;;
46561;SDS011;32289;42.688;23.330;2023-04-25T13:10:34;4.38;;;2.08;;
46561;SDS011;32289;42.688;23.330;2023-04-25T13:14:16;4.88;;;1.92;;
46561;SDS011;32289;42.688;23.330;2023-04-25T13:17:56;5.20;;;2.05;;
46561;SDS011;32289;42.688;23.330;2023-04-25T13:21:37;2.50;;;1.30;;
46561;SDS011;32289;42.688;23.330;2023-04-25T13:25:18;1.80;;;1.00;;
46561;SDS011;32289;42.688;23.330;2023-04-25T13:28:59;2.42;;;1.17;;
46561;SDS011;32289;42.688;23.330;2023-04-25T13:32:40;3.35;;;1.73;;
46561;SDS011;32289;42.688;23.330;2023-04-25T13:36:21;2.00;;;1.00;;
46561;SDS011;32289;42.688;23.330;2023-04-25T13:40:06;4.20;;;1.92;;
46561;SDS011;32289;42.688;23.330;2023-04-25T13:43:49;5.10;;;2.10;;
46561;SDS011;32289;42.688;23.330;2023-04-25T13:47:30;7.05;;;2.28;;
46561;SDS011;32289;42.688;23.330;2023-04-25T13:51:11;1.73;;;0.85;;
46561;SDS011;32289;42.688;23.330;2023-04-25T13:54:52;5.35;;;1.40;;
46561;SDS011;32289;42.688;23.330;2023-04-25T13:58:32;5.53;;;1.80;;
46561;SDS011;32289;42.688;23.330;2023-04-25T14:02:13;3.63;;;1.48;;
46561;SDS011;32289;42.688;23.330;2023-04-25T14:05:54;6.35;;;1.55;;
46561;SDS011;32289;42.688;23.330;2023-04-25T14:09:35;2.05;;;1.08;;
46561;SDS011;32289;42.688;23.330;2023-04-25T14:13:16;5.80;;;2.55;;
46561;SDS011;32289;42.688;23.330;2023-04-25T14:16:56;7.65;;;2.90;;
46561;SDS011;32289;42.688;23.330;2023-04-25T14:20:37;15.30;;;7.68;;
46561;SDS011;32289;42.688;23.330;2023-04-25T14:24:18;43.60;;;12.70;;
46561;SDS011;32289;42.688;23.330;2023-04-25T14:27:58;17.98;;;7.70;;
46561;SDS011;32289;42.688;23.330;2023-04-25T14:31:39;3.45;;;1.45;;
46561;SDS011;32289;42.688;23.330;2023-04-25T14:35:21;5.30;;;2.42;;
46561;SDS011;32289;42.688;23.330;2023-04-25T14:39:01;3.13;;;2.13;;
46561;SDS011;32289;42.688;23.330;2023-04-25T14:42:43;2.25;;;1.20;;
46561;SDS011;32289;42.688;23.330;2023-04-25T14:46:23;4.97;;;1.30;;
46561;SDS011;32289;42.688;23.330;2023-04-25T14:50:05;4.47;;;2.08;;
46561;SDS011;32289;42.688;23.330;2023-04-25T14:53:46;2.78;;;1.52;;
46561;SDS011;32289;42.688;23.330;2023-04-25T14:57:27;2.88;;;1.38;;
46561;SDS011;32289;42.688;23.330;2023-04-25T15:01:08;1.33;;;0.68;;
46561;SDS011;32289;42.688;23.330;2023-04-25T15:04:48;2.25;;;1.02;;
46561;SDS011;32289;42.688;23.330;2023-04-25T15:08:29;3.60;;;1.77;;
46561;SDS011;32289;42.688;23.330;2023-04-25T15:12:10;3.47;;;1.38;;
46561;SDS011;32289;42.688;23.330;2023-04-25T15:15:52;2.72;;;1.30;;
46561;SDS011;32289;42.688;23.330;2023-04-25T15:19:34;3.13;;;1.30;;
46561;SDS011;32289;42.688;23.330;2023-04-25T15:23:14;3.15;;;0.90;;
46561;SDS011;32289;42.688;23.330;2023-04-25T15:26:55;2.70;;;1.10;;
46561;SDS011;32289;42.688;23.330;2023-04-25T15:30:36;1.88;;;0.98;;
46561;SDS011;32289;42.688;23.330;2023-04-25T15:34:17;2.75;;;1.40;;
46561;SDS011;32289;42.688;23.330;2023-04-25T15:37:58;1.95;;;1.05;;
46561;SDS011;32289;42.688;23.330;2023-04-25T15:41:38;8.60;;;1.85;;
46561;SDS011;32289;42.688;23.330;2023-04-25T15:45:24;8.00;;;3.70;;
46561;SDS011;32289;42.688;23.330;2023-04-25T15:49:05;3.88;;;2.28;;
46561;SDS011;32289;42.688;23.330;2023-04-25T15:52:47;3.58;;;1.35;;
46561;SDS011;32289;42.688;23.330;2023-04-25T15:56:29;2.55;;;1.38;;
46561;SDS011;32289;42.688;23.330;2023-04-25T16:00:12;3.05;;;1.67;;
46561;SDS011;32289;42.688;23.330;2023-04-25T16:03:54;9.88;;;2.78;;
46561;SDS011;32289;42.688;23.330;2023-04-25T16:07:37;21.67;;;6.97;;
46561;SDS011;32289;42.688;23.330;2023-04-25T16:11:19;3.58;;;1.17;;
46561;SDS011;32289;42.688;23.330;2023-04-25T16:15:00;3.22;;;1.17;;
46561;SDS011;32289;42.688;23.330;2023-04-25T16:18:40;1.70;;;1.15;;
46561;SDS011;32289;42.688;23.330;2023-04-25T16:22:21;3.05;;;1.65;;
46561;SDS011;32289;42.688;23.330;2023-04-25T16:26:02;4.00;;;1.20;;
46561;SDS011;32289;42.688;23.330;2023-04-25T16:29:44;5.28;;;2.05;;
46561;SDS011;32289;42.688;23.330;2023-04-25T16:33:24;10.88;;;4.10;;
46561;SDS011;32289;42.688;23.330;2023-04-25T16:37:05;6.40;;;2.70;;
46561;SDS011;32289;42.688;23.330;2023-04-25T16:40:46;7.10;;;2.90;;
46561;SDS011;32289;42.688;23.330;2023-04-25T16:44:27;4.53;;;1.77;;
46561;SDS011;32289;42.688;23.330;2023-04-25T16:48:07;6.32;;;2.53;;
46561;SDS011;32289;42.688;23.330;2023-04-25T16:51:48;3.63;;;2.00;;
46561;SDS011;32289;42.688;23.330;2023-04-25T16:55:29;5.65;;;2.28;;
46561;SDS011;32289;42.688;23.330;2023-04-25T16:59:10;7.32;;;2.53;;
46561;SDS011;32289;42.688;23.330;2023-04-25T17:02:51;6.13;;;3.47;;
46561;SDS011;32289;42.688;23.330;2023-04-25T17:06:32;4.72;;;2.40;;
46561;SDS011;32289;42.688;23.330;2023-04-25T17:10:14;3.63;;;2.03;;
46561;SDS011;32289;42.688;23.330;2023-04-25T17:13:54;3.67;;;2.58;;
46561;SDS011;32289;42.688;23.330;2023-04-25T17:17:35;4.35;;;2.33;;
46561;SDS011;32289;42.688;23.330;2023-04-25T17:21:16;3.20;;;1.80;;
46561;SDS011;32289;42.688;23.330;2023-04-25T17:24:57;2.83;;;1.75;;
46561;SDS011;32289;42.688;23.330;2023-04-25T17:28:38;3.90;;;2.15;;
46561;SDS011;32289;42.688;23.330;2023-04-25T17:32:20;3.50;;;1.92;;
46561;SDS011;32289;42.688;23.330;2023-04-25T17:36:01;3.58;;;1.63;;
46561;SDS011;32289;42.688;23.330;2023-04-25T17:39:43;3.55;;;1.95;;
46561;SDS011;32289;42.688;23.330;2023-04-25T17:43:24;2.97;;;1.60;;
46561;SDS011;32289;42.688;23.330;2023-04-25T17:47:06;2.75;;;1.45;;
46561;SDS011;32289;42.688;23.330;2023-04-25T17:50:49;4.43;;;1.98;;
46561;SDS011;32289;42.688;23.330;2023-04-25T17:54:30;3.22;;;1.67;;
46561;SDS011;32289;42.688;23.330;2023-04-25T17:58:10;1.92;;;1.13;;
46561;SDS011;32289;42.688;23.330;2023-04-25T18:01:52;3.03;;;1.33;;
46561;SDS011;32289;42.688;23.330;2023-04-25T18:05:32;6.95;;;2.15;;
46561;SDS011;32289;42.688;23.330;2023-04-25T18:09:13;4.00;;;1.98;;
46561;SDS011;32289;42.688;23.330;2023-04-25T18:12:57;4.43;;;1.80;;
46561;SDS011;32289;42.688;23.330;2023-04-25T18:16:37;3.83;;;2.10;;
46561;SDS011;32289;42.688;23.330;2023-04-25T18:20:18;3.58;;;1.45;;
46561;SDS011;32289;42.688;23.330;2023-04-25T18:24:00;8.25;;;1.63;;
46561;SDS011;32289;42.688;23.330;2023-04-25T18:27:41;4.40;;;1.70;;
46561;SDS011;32289;42.688;23.330;2023-04-25T18:31:22;4.03;;;2.05;;
46561;SDS011;32289;42.688;23.330;2023-04-25T18:35:04;3.47;;;1.35;;
46561;SDS011;32289;42.688;23.330;2023-04-25T18:38:45;3.15;;;1.33;;
46561;SDS011;32289;42.688;23.330;2023-04-25T18:42:29;2.75;;;1.58;;
46561;SDS011;32289;42.688;23.330;2023-04-25T18:46:10;3.97;;;2.08;;
46561;SDS011;32289;42.688;23.330;2023-04-25T18:49:50;6.85;;;2.10;;
46561;SDS011;32289;42.688;23.330;2023-04-25T18:53:31;2.97;;;1.35;;
46561;SDS011;32289;42.688;23.330;2023-04-25T18:57:12;1.65;;;0.93;;
46561;SDS011;32289;42.688;23.330;2023-04-25T19:00:55;2.85;;;1.25;;
46561;SDS011;32289;42.688;23.330;2023-04-25T19:04:35;8.15;;;1.98;;
46561;SDS011;32289;42.688;23.330;2023-04-25T19:08:16;6.20;;;3.33;;
46561;SDS011;32289;42.688;23.330;2023-04-25T19:11:57;2.72;;;1.33;;
46561;SDS011;32289;42.688;23.330;2023-04-25T19:15:38;2.55;;;1.38;;
46561;SDS011;32289;42.688;23.330;2023-04-25T19:19:19;2.58;;;1.27;;
46561;SDS011;32289;42.688;23.330;2023-04-25T19:23:00;4.70;;;1.27;;
46561;SDS011;32289;42.688;23.330;2023-04-25T19:26:41;2.75;;;1.42;;
46561;SDS011;32289;42.688;23.330;2023-04-25T19:30:22;4.47;;;1.70;;
46561;SDS011;32289;42.688;23.330;2023-04-25T19:34:03;2.90;;;1.27;;
46561;SDS011;32289;42.688;23.330;2023-04-25T19:37:44;4.97;;;2.08;;
46561;SDS011;32289;42.688;23.330;2023-04-25T19:41:25;5.07;;;1.63;;
46561;SDS011;32289;42.688;23.330;2023-04-25T19:45:07;3.92;;;1.77;;
46561;SDS011;32289;42.688;23.330;2023-04-25T19:48:48;3.33;;;1.58;;
46561;SDS011;32289;42.688;23.330;2023-04-25T19:52:28;2.80;;;1.40;;
46561;SDS011;32289;42.688;23.330;2023-04-25T19:56:11;4.82;;;1.98;;
46561;SDS011;32289;42.688;23.330;2023-04-25T19:59:51;3.80;;;1.48;;
46561;SDS011;32289;42.688;23.330;2023-04-25T20:03:32;2.30;;;1.17;;
46561;SDS011;32289;42.688;23.330;2023-04-25T20:07:13;2.30;;;1.35;;
46561;SDS011;32289;42.688;23.330;2023-04-25T20:10:54;3.47;;;1.77;;
46561;SDS011;32289;42.688;23.330;2023-04-25T20:14:35;5.05;;;2.17;;
46561;SDS011;32289;42.688;23.330;2023-04-25T20:18:16;3.58;;;1.70;;
46561;SDS011;32289;42.688;23.330;2023-04-25T20:21:58;4.90;;;2.55;;
46561;SDS011;32289;42.688;23.330;2023-04-25T20:25:39;4.28;;;2.00;;
46561;SDS011;32289;42.688;23.330;2023-04-25T20:29:20;4.05;;;2.30;;
46561;SDS011;32289;42.688;23.330;2023-04-25T20:33:02;4.55;;;2.22;;
46561;SDS011;32289;42.688;23.330;2023-04-25T20:36:43;4.55;;;2.15;;
46561;SDS011;32289;42.688;23.330;2023-04-25T20:40:24;4.90;;;2.33;;
46561;SDS011;32289;42.688;23.330;2023-04-25T20:44:04;5.72;;;2.78;;
46561;SDS011;32289;42.688;23.330;2023-04-25T20:47:46;5.70;;;3.17;;
46561;SDS011;32289;42.688;23.330;2023-04-25T20:51:28;5.82;;;2.45;;
46561;SDS011;32289;42.688;23.330;2023-04-25T20:55:09;3.92;;;2.08;;
46561;SDS011;32289;42.688;23.330;2023-04-25T20:58:50;4.45;;;1.95;;
46561;SDS011;32289;42.688;23.330;2023-04-25T21:02:35;3.58;;;1.60;;
46561;SDS011;32289;42.688;23.330;2023-04-25T21:06:16;4.38;;;1.60;;
46561;SDS011;32289;42.688;23.330;2023-04-25T21:09:57;3.00;;;1.58;;
46561;SDS011;32289;42.688;23.330;2023-04-25T21:13:38;3.28;;;1.25;;
46561;SDS011;32289;42.688;23.330;2023-04-25T21:17:18;2.28;;;0.95;;
46561;SDS011;32289;42.688;23.330;2023-04-25T21:20:59;1.80;;;0.90;;
46561;SDS011;32289;42.688;23.330;2023-04-25T21:24:43;2.08;;;1.10;;
46561;SDS011;32289;42.688;23.330;2023-04-25T21:28:23;2.03;;;1.00;;
46561;SDS011;32289;42.688;23.330;2023-04-25T21:32:04;2.60;;;1.02;;
46561;SDS011;32289;42.688;23.330;2023-04-25T21:35:45;2.90;;;0.95;;
46561;SDS011;32289;42.688;23.330;2023-04-25T21:39:26;3.90;;;1.27;;
46561;SDS011;32289;42.688;23.330;2023-04-25T21:43:07;1.27;;;0.77;;
46561;SDS011;32289;42.688;23.330;2023-04-25T21:46:48;2.03;;;0.90;;
46561;SDS011;32289;42.688;23.330;2023-04-25T21:50:29;2.78;;;0.90;;
46561;SDS011;32289;42.688;23.330;2023-04-25T21:54:10;2.47;;;1.13;;
46561;SDS011;32289;42.688;23.330;2023-04-25T21:57:50;1.58;;;1.00;;
46561;SDS011;32289;42.688;23.330;2023-04-25T22:01:32;2.85;;;1.27;;
46561;SDS011;32289;42.688;23.330;2023-04-25T22:05:13;5.38;;;1.02;;